メインページ
METAR-TAF:

METAR-TAF

空港 :

ニアメ, ニジェール

ディオリ・アマニ国際空港

緯度: 13-29N, 経度: 002-10E, 海抜: 223m

現時点の気象観測

当レポートは54分前の20:00(UTC)に作成
東/北東の風 3kt
気温 23°C
湿度 20%
気圧 1013 hPa
視程: 8000m

METAR: DRRN 112000Z 06003KT 8000 NSC 23/M01 Q1013 NOSIG

時間: 21:54 (20:54 UTC)

予報

当レポートは3時間54分前の17:00(UTC)に作成
予報は11日の 18時(UTC)から 12日の 24時(UTC)まで有効
北東の風 6kt
視程: 6000m
11日の 18時(UTC)から 11日の 21時(UTC)まで一時的に
視程: 3500m
広範な塵
12日の 06時(UTC)から 12日の 08時(UTC)まで一時的に
視程: 3500m
広範な塵
12日の 09時(UTC)から 12日の 11時(UTC)まで徐々に
南東の風 10kt

TAF: DRRN 111700Z 1118/1224 04006KT 6000 NSC TEMPO 1118/1121 3500 DU TEMPO 1206/1208 3500 DU BECMG 1209/1211 14010KT

4,000以上の空港の気象観測と天気予報(METAR報とTAF報)

利用可能な観測所は地図上に黄色い丸と赤い丸で示す。

丸の上にカーソルを重ねると観測所名を参照できる。

次にクリックすると気象観測と天気予報を参照できる。

マップの切り替え:黒色「×」印の緑ボタンをクリックして拡大、「-」印の緑ボタンをクリックして縮小、緑色の三角印をクリックして隣りの地図に切り替え


METAR-TAF: